sensor_id;sensor_type;location;lat;lon;timestamp;pressure;altitude;pressure_sealevel;temperature;humidity
3590;BME280;1809;48.470;9.226;2023-05-01T00:01:04;-16485.72;;;11.37;100.00
3590;BME280;1809;48.470;9.226;2023-05-01T00:03:31;-16482.50;;;11.25;100.00
3590;BME280;1809;48.470;9.226;2023-05-01T00:06:01;-16480.53;;;11.18;100.00
3590;BME280;1809;48.470;9.226;2023-05-01T00:08:27;-16478.84;;;11.12;100.00
3590;BME280;1809;48.470;9.226;2023-05-01T00:10:52;-16479.81;;;11.15;100.00
3590;BME280;1809;48.470;9.226;2023-05-01T00:13:18;-16484.19;;;11.31;100.00
3590;BME280;1809;48.470;9.226;2023-05-01T00:15:46;-16481.25;;;11.20;100.00
3590;BME280;1809;48.470;9.226;2023-05-01T00:18:11;-16479.13;;;11.13;100.00
3590;BME280;1809;48.470;9.226;2023-05-01T00:20:37;-16481.66;;;11.22;100.00
3590;BME280;1809;48.470;9.226;2023-05-01T00:23:02;-16482.34;;;11.24;100.00
3590;BME280;1809;48.470;9.226;2023-05-01T00:25:27;-16488.25;;;11.46;100.00
3590;BME280;1809;48.470;9.226;2023-05-01T00:27:53;-16490.34;;;11.53;100.00
3590;BME280;1809;48.470;9.226;2023-05-01T00:30:18;-16494.84;;;11.69;100.00
3590;BME280;1809;48.470;9.226;2023-05-01T00:32:44;-16493.72;;;11.65;100.00
3590;BME280;1809;48.470;9.226;2023-05-01T00:35:09;-16493.88;;;11.66;100.00
3590;BME280;1809;48.470;9.226;2023-05-01T00:37:34;-16495.97;;;11.73;100.00
3590;BME280;1809;48.470;9.226;2023-05-01T00:40:00;-16493.72;;;11.65;100.00
3590;BME280;1809;48.470;9.226;2023-05-01T00:42:25;-16493.31;;;11.64;100.00
3590;BME280;1809;48.470;9.226;2023-05-01T00:44:51;-16492.88;;;11.62;100.00
3590;BME280;1809;48.470;9.226;2023-05-01T00:47:16;-16493.31;;;11.64;100.00
3590;BME280;1809;48.470;9.226;2023-05-01T00:49:42;-16499.06;;;11.84;100.00
3590;BME280;1809;48.470;9.226;2023-05-01T00:52:08;-16493.44;;;11.64;100.00
3590;BME280;1809;48.470;9.226;2023-05-01T00:54:35;-16490.22;;;11.53;100.00
3590;BME280;1809;48.470;9.226;2023-05-01T00:57:01;-16490.91;;;11.55;100.00
3590;BME280;1809;48.470;9.226;2023-05-01T00:59:26;-16488.41;;;11.46;100.00
3590;BME280;1809;48.470;9.226;2023-05-01T01:01:51;-16487.00;;;11.41;100.00
3590;BME280;1809;48.470;9.226;2023-05-01T01:04:17;-16485.88;;;11.37;100.00
3590;BME280;1809;48.470;9.226;2023-05-01T01:06:55;-16485.88;;;11.37;100.00
3590;BME280;1809;48.470;9.226;2023-05-01T01:09:37;-16487.28;;;11.42;100.00
3590;BME280;1809;48.470;9.226;2023-05-01T01:15:04;-16489.50;;;11.50;100.00
3590;BME280;1809;48.470;9.226;2023-05-01T01:17:43;-16492.31;;;11.60;100.00
3590;BME280;1809;48.470;9.226;2023-05-01T01:20:31;-16492.88;;;11.62;100.00
3590;BME280;1809;48.470;9.226;2023-05-01T01:31:45;-16488.69;;;11.47;100.00
3590;BME280;1809;48.470;9.226;2023-05-01T01:34:19;-16487.56;;;11.43;100.00
3590;BME280;1809;48.470;9.226;2023-05-01T01:36:57;-16485.44;;;11.36;100.00
3590;BME280;1809;48.470;9.226;2023-05-01T01:39:37;-16485.88;;;11.37;100.00
3590;BME280;1809;48.470;9.226;2023-05-01T01:42:08;-16484.88;;;11.33;100.00
3590;BME280;1809;48.470;9.226;2023-05-01T01:45:21;-16485.03;;;11.34;100.00
3590;BME280;1809;48.470;9.226;2023-05-01T01:47:49;-16483.34;;;11.28;100.00
3590;BME280;1809;48.470;9.226;2023-05-01T01:50:17;-16479.81;;;11.15;100.00
3590;BME280;1809;48.470;9.226;2023-05-01T01:52:46;-16478.28;;;11.10;100.00
3590;BME280;1809;48.470;9.226;2023-05-01T01:55:13;-16479.13;;;11.13;100.00
3590;BME280;1809;48.470;9.226;2023-05-01T01:57:42;-16478.44;;;11.10;100.00
3590;BME280;1809;48.470;9.226;2023-05-01T02:00:10;-16477.59;;;11.07;100.00
3590;BME280;1809;48.470;9.226;2023-05-01T02:02:37;-16476.31;;;11.03;100.00
3590;BME280;1809;48.470;9.226;2023-05-01T02:05:06;-16478.56;;;11.11;100.00
3590;BME280;1809;48.470;9.226;2023-05-01T02:07:33;-16477.16;;;11.06;100.00
3590;BME280;1809;48.470;9.226;2023-05-01T02:10:03;-16477.03;;;11.05;100.00
3590;BME280;1809;48.470;9.226;2023-05-01T02:12:30;-16476.75;;;11.04;100.00
3590;BME280;1809;48.470;9.226;2023-05-01T02:14:56;-16473.94;;;10.94;100.00
3590;BME280;1809;48.470;9.226;2023-05-01T02:17:22;-16473.50;;;10.93;100.00
3590;BME280;1809;48.470;9.226;2023-05-01T02:19:50;-16473.50;;;10.93;100.00
3590;BME280;1809;48.470;9.226;2023-05-01T02:22:17;-16472.94;;;10.91;100.00
3590;BME280;1809;48.470;9.226;2023-05-01T02:24:45;-16473.66;;;10.93;100.00
3590;BME280;1809;48.470;9.226;2023-05-01T02:27:16;-16472.38;;;10.89;100.00
3590;BME280;1809;48.470;9.226;2023-05-01T02:29:45;-16472.53;;;10.89;100.00
3590;BME280;1809;48.470;9.226;2023-05-01T02:32:10;-16476.75;;;11.04;100.00
3590;BME280;1809;48.470;9.226;2023-05-01T02:34:36;-16478.00;;;11.09;100.00
3590;BME280;1809;48.470;9.226;2023-05-01T02:37:03;-16474.63;;;10.97;100.00
3590;BME280;1809;48.470;9.226;2023-05-01T02:39:30;-16473.22;;;10.92;100.00
3590;BME280;1809;48.470;9.226;2023-05-01T02:41:57;-16472.09;;;10.88;100.00
3590;BME280;1809;48.470;9.226;2023-05-01T02:44:26;-16472.25;;;10.88;100.00
3590;BME280;1809;48.470;9.226;2023-05-01T02:46:52;-16471.41;;;10.85;100.00
3590;BME280;1809;48.470;9.226;2023-05-01T02:49:19;-16470.56;;;10.82;100.00
3590;BME280;1809;48.470;9.226;2023-05-01T02:51:45;-16470.69;;;10.83;100.00
3590;BME280;1809;48.470;9.226;2023-05-01T02:54:11;-16472.94;;;10.91;100.00
3590;BME280;1809;48.470;9.226;2023-05-01T02:56:37;-16470.97;;;10.84;100.00
3590;BME280;1809;48.470;9.226;2023-05-01T02:59:02;-16470.28;;;10.81;100.00
3590;BME280;1809;48.470;9.226;2023-05-01T03:01:28;-16469.56;;;10.78;100.00
3590;BME280;1809;48.470;9.226;2023-05-01T03:03:53;-16469.56;;;10.78;100.00
3590;BME280;1809;48.470;9.226;2023-05-01T03:06:19;-16469.28;;;10.77;100.00
3590;BME280;1809;48.470;9.226;2023-05-01T03:08:44;-16469.72;;;10.79;100.00
3590;BME280;1809;48.470;9.226;2023-05-01T03:11:10;-16469.28;;;10.77;100.00
3590;BME280;1809;48.470;9.226;2023-05-01T03:13:35;-16470.13;;;10.80;100.00
3590;BME280;1809;48.470;9.226;2023-05-01T03:16:01;-16470.13;;;10.80;100.00
3590;BME280;1809;48.470;9.226;2023-05-01T03:18:26;-16470.97;;;10.84;100.00
3590;BME280;1809;48.470;9.226;2023-05-01T03:20:55;-16470.97;;;10.84;100.00
3590;BME280;1809;48.470;9.226;2023-05-01T03:23:23;-16471.81;;;10.87;100.00
3590;BME280;1809;48.470;9.226;2023-05-01T03:25:49;-16470.97;;;10.84;100.00
3590;BME280;1809;48.470;9.226;2023-05-01T03:28:15;-16467.63;;;10.71;100.00
3590;BME280;1809;48.470;9.226;2023-05-01T03:30:41;-16468.44;;;10.74;100.00
3590;BME280;1809;48.470;9.226;2023-05-01T03:33:06;-16468.59;;;10.75;100.00
3590;BME280;1809;48.470;9.226;2023-05-01T03:35:32;-16468.88;;;10.76;100.00
3590;BME280;1809;48.470;9.226;2023-05-01T03:37:57;-16468.88;;;10.76;100.00
3590;BME280;1809;48.470;9.226;2023-05-01T03:40:23;-16469.56;;;10.78;100.00
3590;BME280;1809;48.470;9.226;2023-05-01T03:42:48;-16469.03;;;10.76;100.00
3590;BME280;1809;48.470;9.226;2023-05-01T03:45:13;-16469.56;;;10.78;100.00
3590;BME280;1809;48.470;9.226;2023-05-01T03:47:39;-16468.75;;;10.75;100.00
3590;BME280;1809;48.470;9.226;2023-05-01T03:50:04;-16470.13;;;10.80;100.00
3590;BME280;1809;48.470;9.226;2023-05-01T03:52:30;-16466.50;;;10.67;100.00
3590;BME280;1809;48.470;9.226;2023-05-01T03:54:55;-16466.22;;;10.66;100.00
3590;BME280;1809;48.470;9.226;2023-05-01T03:57:21;-8184.03;;;10.64;100.00
3590;BME280;1809;48.470;9.226;2023-05-01T03:59:47;-13288.03;;;10.69;100.00
3590;BME280;1809;48.470;9.226;2023-05-01T04:02:13;-16466.22;;;10.66;100.00
3590;BME280;1809;48.470;9.226;2023-05-01T04:04:38;-16466.78;;;10.68;100.00
3590;BME280;1809;48.470;9.226;2023-05-01T04:07:04;-16465.38;;;10.63;100.00
3590;BME280;1809;48.470;9.226;2023-05-01T04:09:29;-16465.66;;;10.64;100.00
3590;BME280;1809;48.470;9.226;2023-05-01T04:11:55;-16464.94;;;10.62;100.00
3590;BME280;1809;48.470;9.226;2023-05-01T04:14:20;-16465.78;;;10.65;100.00
3590;BME280;1809;48.470;9.226;2023-05-01T04:16:46;-16465.66;;;10.64;100.00
3590;BME280;1809;48.470;9.226;2023-05-01T04:19:12;-16462.84;;;10.54;100.00
3590;BME280;1809;48.470;9.226;2023-05-01T04:21:37;-14915.03;;;10.56;100.00
3590;BME280;1809;48.470;9.226;2023-05-01T04:24:03;-8515.69;;;10.63;100.00
3590;BME280;1809;48.470;9.226;2023-05-01T04:26:28;-7188.09;;;10.62;100.00
3590;BME280;1809;48.470;9.226;2023-05-01T04:28:53;2451.25;;;10.61;100.00
3590;BME280;1809;48.470;9.226;2023-05-01T04:31:19;14792.16;;;10.67;100.00
3590;BME280;1809;48.470;9.226;2023-05-01T04:33:44;23490.75;;;10.64;100.00
3590;BME280;1809;48.470;9.226;2023-05-01T04:36:10;28519.41;;;10.63;100.00
3590;BME280;1809;48.470;9.226;2023-05-01T04:38:35;33554.97;;;10.61;100.00
3590;BME280;1809;48.470;9.226;2023-05-01T04:41:01;43312.94;;;10.60;100.00
3590;BME280;1809;48.470;9.226;2023-05-01T04:43:27;57488.84;;;10.52;100.00
3590;BME280;1809;48.470;9.226;2023-05-01T04:45:53;63919.13;;;10.48;100.00
3590;BME280;1809;48.470;9.226;2023-05-01T04:48:18;67310.06;;;10.47;100.00
3590;BME280;1809;48.470;9.226;2023-05-01T04:50:43;70025.63;;;10.47;100.00
3590;BME280;1809;48.470;9.226;2023-05-01T04:53:09;74103.06;;;10.47;100.00
3590;BME280;1809;48.470;9.226;2023-05-01T04:55:35;76144.84;;;10.48;100.00
3590;BME280;1809;48.470;9.226;2023-05-01T04:58:00;77861.50;;;10.60;100.00
3590;BME280;1809;48.470;9.226;2023-05-01T05:00:29;79215.06;;;10.54;100.00
3590;BME280;1809;48.470;9.226;2023-05-01T05:02:54;82959.56;;;10.51;100.00
3590;BME280;1809;48.470;9.226;2023-05-01T05:05:20;87732.38;;;10.49;100.00
3590;BME280;1809;48.470;9.226;2023-05-01T05:07:45;87384.63;;;10.45;100.00
3590;BME280;1809;48.470;9.226;2023-05-01T05:10:11;86017.63;;;10.43;100.00
3590;BME280;1809;48.470;9.226;2023-05-01T05:12:36;85673.69;;;10.41;100.00
3590;BME280;1809;48.470;9.226;2023-05-01T05:15:01;85677.91;;;10.44;100.00
3590;BME280;1809;48.470;9.226;2023-05-01T05:17:27;86371.53;;;10.52;100.00
3590;BME280;1809;48.470;9.226;2023-05-01T05:19:52;87408.25;;;10.61;100.00
3590;BME280;1809;48.470;9.226;2023-05-01T05:22:18;87415.41;;;10.66;100.00
3590;BME280;1809;48.470;9.226;2023-05-01T05:24:43;87419.69;;;10.69;100.00
3590;BME280;1809;48.470;9.226;2023-05-01T05:27:09;91870.91;;;10.76;100.00
3590;BME280;1809;48.470;9.226;2023-05-01T05:29:34;90183.97;;;10.91;100.00
3590;BME280;1809;48.470;9.226;2023-05-01T05:32:00;83698.19;;;10.93;100.00
3590;BME280;1809;48.470;9.226;2023-05-01T05:34:25;79605.03;;;10.92;100.00
3590;BME280;1809;48.470;9.226;2023-05-01T05:36:50;83005.72;;;10.86;100.00
3590;BME280;1809;48.470;9.226;2023-05-01T05:39:16;81985.28;;;10.88;100.00
3590;BME280;1809;48.470;9.226;2023-05-01T05:41:41;80967.78;;;10.92;100.00
3590;BME280;1809;48.470;9.226;2023-05-01T05:44:06;77897.09;;;10.89;100.00
3590;BME280;1809;48.470;9.226;2023-05-01T05:46:32;77890.13;;;10.83;100.00
3590;BME280;1809;48.470;9.226;2023-05-01T05:48:57;81299.38;;;10.85;100.00
3590;BME280;1809;48.470;9.226;2023-05-01T05:51:22;85401.78;;;10.91;100.00
3590;BME280;1809;48.470;9.226;2023-05-01T05:53:48;88132.19;;;10.90;100.00
3590;BME280;1809;48.470;9.226;2023-05-01T05:56:13;92574.50;;;10.89;100.00
3590;BME280;1809;48.470;9.226;2023-05-01T05:58:38;90187.66;;;10.94;100.00
3590;BME280;1809;48.470;9.226;2023-05-01T06:01:04;92560.09;;;10.79;100.00
3590;BME280;1809;48.470;9.226;2023-05-01T06:03:30;96677.50;;;10.87;100.00
3590;BME280;1809;48.470;9.226;2023-05-01T06:05:56;95656.63;;;10.91;100.00
3590;BME280;1809;48.470;9.226;2023-05-01T06:08:21;95323.69;;;10.97;100.00
3590;BME280;1809;48.470;9.226;2023-05-01T06:10:47;96016.34;;;11.02;100.00
3590;BME280;1809;48.470;9.226;2023-05-01T06:13:12;98076.53;;;11.05;100.00
3590;BME280;1809;48.470;9.226;2023-05-01T06:15:38;100824.81;;;11.08;100.00
3590;BME280;1809;48.470;9.226;2023-05-01T06:18:04;103228.06;;;11.09;100.00
3590;BME280;1809;48.470;9.226;2023-05-01T06:20:30;103253.50;;;11.24;100.00
3590;BME280;1809;48.470;9.226;2023-05-01T06:22:56;102557.72;;;11.19;100.00
3590;BME280;1809;48.470;9.226;2023-05-01T06:25:22;103247.56;;;11.21;100.00
3590;BME280;1809;48.470;9.226;2023-05-01T06:27:51;105666.09;;;11.29;100.00
3590;BME280;1809;48.470;9.226;2023-05-01T06:30:16;108425.47;;;11.35;100.00
3590;BME280;1809;48.470;9.226;2023-05-01T06:32:44;109798.47;;;11.33;100.00
3590;BME280;1809;48.470;9.226;2023-05-01T06:35:10;111174.69;;;11.33;100.00
3590;BME280;1809;48.470;9.226;2023-05-01T06:37:36;110827.88;;;11.32;100.00
3590;BME280;1809;48.470;9.226;2023-05-01T06:40:03;113585.34;;;11.34;100.00
3590;BME280;1809;48.470;9.226;2023-05-01T06:42:29;117729.88;;;11.39;100.00
3590;BME280;1809;48.470;9.226;2023-05-01T06:44:54;120498.25;;;11.44;100.00
3590;BME280;1809;48.470;9.226;2023-05-01T06:47:19;121183.53;;;11.41;100.00
3590;BME280;1809;48.470;9.226;2023-05-01T06:49:45;121861.84;;;11.35;100.00
3590;BME280;1809;48.470;9.226;2023-05-01T06:52:10;123974.41;;;11.55;100.00
3590;BME280;1809;48.470;9.226;2023-05-01T06:54:36;126426.13;;;11.71;100.00
3590;BME280;1809;48.470;9.226;2023-05-01T06:57:01;126424.06;;;11.70;100.00
3590;BME280;1809;48.470;9.226;2023-05-01T06:59:26;127110.50;;;11.67;100.00
3590;BME280;1809;48.470;9.226;2023-05-01T07:01:52;127103.16;;;11.64;100.00
3590;BME280;1809;48.470;9.226;2023-05-01T07:04:17;127104.22;;;11.64;100.00
3590;BME280;1809;48.470;9.226;2023-05-01T07:06:42;125730.34;;;11.69;100.00
3590;BME280;1809;48.470;9.226;2023-05-01T07:09:08;124708.75;;;11.76;100.00
3590;BME280;1809;48.470;9.226;2023-05-01T07:11:33;121235.50;;;11.67;100.00
3590;BME280;1809;48.470;9.226;2023-05-01T07:13:59;119193.78;;;11.82;100.00
3590;BME280;1809;48.470;9.226;2023-05-01T07:16:25;116453.50;;;11.93;100.00
3590;BME280;1809;48.470;9.226;2023-05-01T07:18:50;114076.09;;;12.13;100.00
3590;BME280;1809;48.470;9.226;2023-05-01T07:21:16;117929.72;;;12.43;100.00
3590;BME280;1809;48.470;9.226;2023-05-01T07:23:41;114486.88;;;12.48;100.00
3590;BME280;1809;48.470;9.226;2023-05-01T07:26:06;109688.69;;;12.65;100.00
3590;BME280;1809;48.470;9.226;2023-05-01T07:28:32;101781.91;;;12.72;100.00
3590;BME280;1809;48.470;9.226;2023-05-01T07:30:57;103859.97;;;12.80;100.00
3590;BME280;1809;48.470;9.226;2023-05-01T07:33:22;102099.09;;;12.56;100.00
3590;BME280;1809;48.470;9.226;2023-05-01T07:35:51;101388.06;;;12.42;100.00
3590;BME280;1809;48.470;9.226;2023-05-01T07:38:16;99337.47;;;12.49;100.00
3590;BME280;1809;48.470;9.226;2023-05-01T07:40:42;95205.81;;;12.42;100.00
3590;BME280;1809;48.470;9.226;2023-05-01T07:43:08;96584.22;;;12.46;100.00
3590;BME280;1809;48.470;9.226;2023-05-01T07:45:39;99698.25;;;12.60;100.00
3590;BME280;1809;48.470;9.226;2023-05-01T07:48:05;97607.09;;;12.41;100.00
3590;BME280;1809;48.470;9.226;2023-05-01T07:50:30;99330.16;;;12.45;100.00
3590;BME280;1809;48.470;9.226;2023-05-01T07:52:56;94166.50;;;12.35;100.00
3590;BME280;1809;48.470;9.226;2023-05-01T07:55:22;91766.22;;;12.35;100.00
3590;BME280;1809;48.470;9.226;2023-05-01T07:57:48;85609.44;;;12.41;100.00
3590;BME280;1809;48.470;9.226;2023-05-01T08:00:14;84238.84;;;12.39;100.00
3590;BME280;1809;48.470;9.226;2023-05-01T08:02:39;85944.63;;;12.36;100.00
3590;BME280;1809;48.470;9.226;2023-05-01T08:05:05;85571.69;;;12.14;100.00
3590;BME280;1809;48.470;9.226;2023-05-01T08:07:31;89669.84;;;12.08;100.00
3590;BME280;1809;48.470;9.226;2023-05-01T08:09:56;95884.31;;;12.37;100.00
3590;BME280;1809;48.470;9.226;2023-05-01T08:12:21;92109.75;;;12.36;100.00
3590;BME280;1809;48.470;9.226;2023-05-01T08:14:47;89400.50;;;12.58;100.00
3590;BME280;1809;48.470;9.226;2023-05-01T08:17:12;82894.63;;;12.57;100.00
3590;BME280;1809;48.470;9.226;2023-05-01T08:19:38;76083.41;;;12.75;100.00
3590;BME280;1809;48.470;9.226;2023-05-01T08:22:03;64862.84;;;13.03;100.00
3590;BME280;1809;48.470;9.226;2023-05-01T08:24:28;50263.41;;;13.14;100.00
3590;BME280;1809;48.470;9.226;2023-05-01T08:26:54;49955.41;;;13.53;100.00
3590;BME280;1809;48.470;9.226;2023-05-01T08:29:20;30685.75;;;13.79;100.00
3590;BME280;1809;48.470;9.226;2023-05-01T08:31:45;-4895.19;;;14.05;100.00
3590;BME280;1809;48.470;9.226;2023-05-01T08:34:10;-16564.72;;;14.21;100.00
3590;BME280;1809;48.470;9.226;2023-05-01T08:36:36;-16576.09;;;14.62;100.00
3590;BME280;1809;48.470;9.226;2023-05-01T08:39:02;-16589.13;;;15.08;100.00
3590;BME280;1809;48.470;9.226;2023-05-01T08:41:29;-16589.97;;;15.12;100.00
3590;BME280;1809;48.470;9.226;2023-05-01T08:43:56;-16610.84;;;15.87;100.00
3590;BME280;1809;48.470;9.226;2023-05-01T08:46:30;-16612.94;;;15.94;100.00
3590;BME280;1809;48.470;9.226;2023-05-01T08:48:59;-16622.19;;;16.28;100.00
3590;BME280;1809;48.470;9.226;2023-05-01T08:51:28;-16620.53;;;16.22;100.00
3590;BME280;1809;48.470;9.226;2023-05-01T08:53:57;-16622.47;;;16.29;100.00
3590;BME280;1809;48.470;9.226;2023-05-01T08:56:22;-16633.13;;;16.67;100.00
3590;BME280;1809;48.470;9.226;2023-05-01T08:58:49;-16626.81;;;16.44;100.00
3590;BME280;1809;48.470;9.226;2023-05-01T09:01:15;-16631.31;;;16.60;100.00
3590;BME280;1809;48.470;9.226;2023-05-01T09:03:43;-16650.50;;;17.30;100.00
3590;BME280;1809;48.470;9.226;2023-05-01T09:06:10;-16664.50;;;17.80;100.00
3590;BME280;1809;48.470;9.226;2023-05-01T09:08:35;-16656.50;;;17.51;100.00
3590;BME280;1809;48.470;9.226;2023-05-01T09:11:02;-16655.81;;;17.49;100.00
3590;BME280;1809;48.470;9.226;2023-05-01T09:13:27;-16654.69;;;17.45;100.00
3590;BME280;1809;48.470;9.226;2023-05-01T09:15:53;-16658.47;;;17.58;100.00
3590;BME280;1809;48.470;9.226;2023-05-01T09:18:18;-16642.94;;;17.02;100.00
3590;BME280;1809;48.470;9.226;2023-05-01T09:20:43;-16648.81;;;17.24;100.00
3590;BME280;1809;48.470;9.226;2023-05-01T09:23:10;-16663.66;;;17.77;100.00
3590;BME280;1809;48.470;9.226;2023-05-01T09:25:35;-16671.63;;;18.06;100.00
3590;BME280;1809;48.470;9.226;2023-05-01T09:28:03;-16668.97;;;17.96;100.00
3590;BME280;1809;48.470;9.226;2023-05-01T09:30:37;-16669.81;;;17.99;100.00
3590;BME280;1809;48.470;9.226;2023-05-01T09:33:11;-16677.78;;;18.28;100.00
3590;BME280;1809;48.470;9.226;2023-05-01T09:35:53;-16692.63;;;18.82;100.00
3590;BME280;1809;48.470;9.226;2023-05-01T09:38:23;-16684.94;;;18.54;100.00
3590;BME280;1809;48.470;9.226;2023-05-01T09:40:50;-16696.69;;;18.96;100.00
3590;BME280;1809;48.470;9.226;2023-05-01T09:43:24;-16705.63;;;19.28;100.00
3590;BME280;1809;48.470;9.226;2023-05-01T09:46:20;-16711.38;;;19.49;100.00
3590;BME280;1809;48.470;9.226;2023-05-01T09:48:59;-16717.94;;;19.73;100.00
3590;BME280;1809;48.470;9.226;2023-05-01T09:51:29;-16731.63;;;20.22;100.00
3590;BME280;1809;48.470;9.226;2023-05-01T09:53:59;-16731.91;;;20.23;100.00
3590;BME280;1809;48.470;9.226;2023-05-01T09:56:26;-16735.69;;;20.37;100.00
3590;BME280;1809;48.470;9.226;2023-05-01T09:58:53;-16731.63;;;20.22;100.00
3590;BME280;1809;48.470;9.226;2023-05-01T10:01:36;-16699.63;;;19.07;100.00
3590;BME280;1809;48.470;9.226;2023-05-01T10:04:02;-16703.13;;;19.19;100.00
3590;BME280;1809;48.470;9.226;2023-05-01T10:06:28;-16711.78;;;19.51;100.00
3590;BME280;1809;48.470;9.226;2023-05-01T10:08:53;-16725.22;;;19.99;100.00
3590;BME280;1809;48.470;9.226;2023-05-01T10:11:18;-16732.06;;;20.24;100.00
3590;BME280;1809;48.470;9.226;2023-05-01T10:13:44;-16719.75;;;19.79;100.00
3590;BME280;1809;48.470;9.226;2023-05-01T10:16:29;-16715.69;;;19.65;100.00
3590;BME280;1809;48.470;9.226;2023-05-01T10:18:55;-16716.25;;;19.67;100.00
3590;BME280;1809;48.470;9.226;2023-05-01T10:21:24;-16716.25;;;19.67;100.00
3590;BME280;1809;48.470;9.226;2023-05-01T10:23:50;-16714.16;;;19.59;100.00
3590;BME280;1809;48.470;9.226;2023-05-01T10:26:17;-16712.06;;;19.52;100.00
3590;BME280;1809;48.470;9.226;2023-05-01T10:28:45;-16697.78;;;19.00;100.00
3590;BME280;1809;48.470;9.226;2023-05-01T10:31:11;-16696.97;;;18.97;100.00
3590;BME280;1809;48.470;9.226;2023-05-01T10:33:38;-16693.31;;;18.84;100.00
3590;BME280;1809;48.470;9.226;2023-05-01T10:36:05;-16704.78;;;19.25;100.00
3590;BME280;1809;48.470;9.226;2023-05-01T10:38:33;-16696.97;;;18.97;100.00
3590;BME280;1809;48.470;9.226;2023-05-01T10:40:59;-16691.63;;;18.78;100.00
3590;BME280;1809;48.470;9.226;2023-05-01T10:43:27;-16691.22;;;18.76;100.00
3590;BME280;1809;48.470;9.226;2023-05-01T10:51:16;-16694.31;;;18.88;100.00
3590;BME280;1809;48.470;9.226;2023-05-01T10:53:43;-16695.13;;;18.91;100.00
3590;BME280;1809;48.470;9.226;2023-05-01T11:01:44;-16696.69;;;18.96;100.00
3590;BME280;1809;48.470;9.226;2023-05-01T11:07:14;-16694.44;;;18.88;100.00
3590;BME280;1809;48.470;9.226;2023-05-01T11:09:41;-16682.13;;;18.44;100.00
3590;BME280;1809;48.470;9.226;2023-05-01T11:12:11;-16671.22;;;18.04;100.00
3590;BME280;1809;48.470;9.226;2023-05-01T11:20:04;-16655.13;;;17.46;100.00
3590;BME280;1809;48.470;9.226;2023-05-01T11:22:34;-16649.38;;;17.26;100.00
3590;BME280;1809;48.470;9.226;2023-05-01T11:25:00;-16642.38;;;17.00;100.00
3590;BME280;1809;48.470;9.226;2023-05-01T11:27:29;-16644.03;;;17.06;100.00
3590;BME280;1809;48.470;9.226;2023-05-01T11:29:57;-16647.28;;;17.18;100.00
3590;BME280;1809;48.470;9.226;2023-05-01T11:32:27;-16651.63;;;17.34;100.00
3590;BME280;1809;48.470;9.226;2023-05-01T11:34:54;-16656.09;;;17.50;100.00
3590;BME280;1809;48.470;9.226;2023-05-01T11:37:41;-16659.72;;;17.63;100.00
3590;BME280;1809;48.470;9.226;2023-05-01T11:42:46;-16658.91;;;17.60;100.00
3590;BME280;1809;48.470;9.226;2023-05-01T11:45:11;-16655.81;;;17.49;100.00
3590;BME280;1809;48.470;9.226;2023-05-01T11:47:38;-16656.09;;;17.50;100.00
3590;BME280;1809;48.470;9.226;2023-05-01T11:50:05;-16660.28;;;17.65;100.00
3590;BME280;1809;48.470;9.226;2023-05-01T11:52:49;-16657.22;;;17.54;100.00
3590;BME280;1809;48.470;9.226;2023-05-01T11:55:18;-16659.47;;;17.62;100.00
3590;BME280;1809;48.470;9.226;2023-05-01T11:57:53;-16659.31;;;17.61;100.00
3590;BME280;1809;48.470;9.226;2023-05-01T12:00:32;-16656.09;;;17.50;100.00
3590;BME280;1809;48.470;9.226;2023-05-01T12:03:06;-16659.31;;;17.61;100.00
3590;BME280;1809;48.470;9.226;2023-05-01T12:05:33;-16666.31;;;17.87;100.00
3590;BME280;1809;48.470;9.226;2023-05-01T12:10:40;-16680.44;;;18.38;100.00
3590;BME280;1809;48.470;9.226;2023-05-01T12:13:07;-16697.25;;;18.98;100.00
3590;BME280;1809;48.470;9.226;2023-05-01T12:15:34;-16693.19;;;18.84;100.00
3590;BME280;1809;48.470;9.226;2023-05-01T12:18:06;-16694.72;;;18.89;100.00
3590;BME280;1809;48.470;9.226;2023-05-01T12:20:44;-16695.56;;;18.92;100.00
3590;BME280;1809;48.470;9.226;2023-05-01T12:23:12;-16709.00;;;19.41;100.00
3590;BME280;1809;48.470;9.226;2023-05-01T12:25:41;-16713.19;;;19.56;100.00
3590;BME280;1809;48.470;9.226;2023-05-01T12:28:25;-16711.22;;;19.49;100.00
3590;BME280;1809;48.470;9.226;2023-05-01T12:30:51;-16714.16;;;19.59;100.00
3590;BME280;1809;48.470;9.226;2023-05-01T12:33:20;-16709.69;;;19.43;100.00
3590;BME280;1809;48.470;9.226;2023-05-01T12:35:48;-16715.84;;;19.65;100.00
3590;BME280;1809;48.470;9.226;2023-05-01T12:38:19;-16720.75;;;19.83;100.00
3590;BME280;1809;48.470;9.226;2023-05-01T12:40:53;-16728.84;;;20.12;100.00
3590;BME280;1809;48.470;9.226;2023-05-01T12:43:20;-16739.63;;;20.51;100.00
3590;BME280;1809;48.470;9.226;2023-05-01T12:45:51;-16742.41;;;20.61;100.00
3590;BME280;1809;48.470;9.226;2023-05-01T12:48:17;-16749.81;;;20.88;100.00
3590;BME280;1809;48.470;9.226;2023-05-01T12:50:43;-16750.94;;;20.92;100.00
3590;BME280;1809;48.470;9.226;2023-05-01T12:53:09;-16758.47;;;21.19;100.00
3590;BME280;1809;48.470;9.226;2023-05-01T12:55:54;-16760.16;;;21.25;100.00
3590;BME280;1809;48.470;9.226;2023-05-01T12:58:19;-16767.97;;;21.54;100.00
3590;BME280;1809;48.470;9.226;2023-05-01T13:00:52;-16771.88;;;21.68;100.00
3590;BME280;1809;48.470;9.226;2023-05-01T13:03:24;-16766.84;;;21.50;100.00
3590;BME280;1809;48.470;9.226;2023-05-01T13:08:31;-16771.59;;;21.67;100.00
3590;BME280;1809;48.470;9.226;2023-05-01T13:11:08;-16771.59;;;21.67;100.00
3590;BME280;1809;48.470;9.226;2023-05-01T13:13:34;-16753.16;;;21.00;100.00
3590;BME280;1809;48.470;9.226;2023-05-01T13:18:31;-16771.59;;;21.67;100.00
3590;BME280;1809;48.470;9.226;2023-05-01T13:21:05;-16757.34;;;21.15;100.00
3590;BME280;1809;48.470;9.226;2023-05-01T13:23:31;-16737.22;;;20.43;100.00
3590;BME280;1809;48.470;9.226;2023-05-01T13:25:56;-16733.59;;;20.29;100.00
3590;BME280;1809;48.470;9.226;2023-05-01T13:28:22;-16742.28;;;20.61;100.00
3590;BME280;1809;48.470;9.226;2023-05-01T13:30:48;-16744.38;;;20.68;100.00
3590;BME280;1809;48.470;9.226;2023-05-01T13:33:14;-16748.41;;;20.83;100.00
3590;BME280;1809;48.470;9.226;2023-05-01T13:35:39;-16767.97;;;21.54;100.00
3590;BME280;1809;48.470;9.226;2023-05-01T13:38:08;-16766.44;;;21.48;100.00
3590;BME280;1809;48.470;9.226;2023-05-01T13:40:35;-16750.38;;;20.90;100.00
3590;BME280;1809;48.470;9.226;2023-05-01T13:43:01;-16748.41;;;20.83;100.00
3590;BME280;1809;48.470;9.226;2023-05-01T13:45:27;-16750.94;;;20.92;100.00